Time;durP1;ratioP1;P1;durP2;ratioP2;P2;SDS_P1;SDS_P2;PMS_P1;PMS_P2;Temp;Humidity;BMP_temperature;BMP_pressure;BME280_temperature;BME280_humidity;BME280_pressure;Samples;Min_cycle;Max_cycle;Signal;HPM_P1;HPM_P2
2023/03/15 00:00:29;;;;;;;1999.90;999.90;;;7.50;99.90;;;;;;5013928;28;20034;-72
2023/03/15 00:02:54;;;;;;;1999.90;999.90;;;7.40;99.90;;;;;;5013176;28;20026;-79
2023/03/15 00:05:20;;;;;;;1999.90;999.90;;;7.40;99.90;;;;;;5014493;28;20048;-79
2023/03/15 00:07:46;;;;;;;1999.90;999.90;;;7.40;99.90;;;;;;5013527;28;20030;-72
2023/03/15 00:10:12;;;;;;;1999.90;999.90;;;7.30;99.90;;;;;;5013038;28;20068;-79
2023/03/15 00:12:37;;;;;;;1999.90;999.90;;;7.30;99.90;;;;;;5013832;28;20030;-79
2023/03/15 00:15:03;;;;;;;1999.90;999.90;;;7.30;99.90;;;;;;5013766;28;20041;-79
2023/03/15 00:17:33;;;;;;;1999.90;999.90;;;7.30;99.90;;;;;;5014218;28;20026;-79
2023/03/15 00:19:59;;;;;;;1999.90;999.90;;;7.30;99.90;;;;;;5014189;28;20022;-79
2023/03/15 00:22:24;;;;;;;1999.90;999.90;;;7.40;99.90;;;;;;5014434;28;20105;-79
2023/03/15 00:24:50;;;;;;;1999.90;999.90;;;7.40;99.90;;;;;;5014193;28;20460;-73
2023/03/15 00:27:16;;;;;;;1999.90;999.90;;;7.40;99.90;;;;;;5014231;28;20025;-79
2023/03/15 00:29:41;;;;;;;1999.90;999.90;;;7.40;99.90;;;;;;5013881;28;20053;-72
2023/03/15 00:32:07;;;;;;;1999.90;999.90;;;7.50;99.90;;;;;;5008657;28;20057;-79
2023/03/15 00:34:32;;;;;;;1999.90;999.90;;;7.40;99.90;;;;;;4994435;28;20027;-79
2023/03/15 00:36:58;;;;;;;1999.90;999.90;;;7.30;99.90;;;;;;4994393;28;20444;-79
2023/03/15 00:39:24;;;;;;;1999.90;999.90;;;7.30;99.90;;;;;;5025720;28;20038;-78
2023/03/15 00:41:51;;;;;;;1999.90;999.90;;;7.20;99.90;;;;;;5031576;28;20026;-79
2023/03/15 00:44:17;;;;;;;1999.90;999.90;;;7.10;99.90;;;;;;5033704;28;20436;-79
2023/03/15 00:46:42;;;;;;;1999.90;999.90;;;7.10;99.90;;;;;;5018529;28;20481;-79
2023/03/15 00:49:08;;;;;;;1999.90;999.90;;;7.10;99.90;;;;;;5013907;28;20040;-79
2023/03/15 00:51:36;;;;;;;1999.90;999.90;;;7.10;99.90;;;;;;5013564;28;20409;-79
2023/03/15 00:54:02;;;;;;;1999.90;999.90;;;7.00;99.90;;;;;;5013819;28;20030;-79
2023/03/15 00:56:30;;;;;;;1999.90;999.90;;;6.90;99.90;;;;;;5013674;28;20500;-79
2023/03/15 00:58:57;;;;;;;1999.90;999.90;;;7.00;99.90;;;;;;5013438;28;20533;-72
2023/03/15 01:01:28;;;;;;;1999.90;999.90;;;7.00;99.90;;;;;;5013712;28;20168;-79
2023/03/15 01:03:54;;;;;;;1999.90;999.90;;;7.00;99.90;;;;;;5013570;28;20392;-79
2023/03/15 01:06:23;;;;;;;1999.90;999.90;;;7.10;99.90;;;;;;5013569;28;20029;-79
2023/03/15 01:08:50;;;;;;;1999.90;999.90;;;7.10;99.90;;;;;;5013453;28;20030;-75
2023/03/15 01:11:23;;;;;;;1999.90;999.90;;;7.00;99.90;;;;;;5013477;28;20028;-79
2023/03/15 01:13:50;;;;;;;1999.90;999.90;;;6.90;99.90;;;;;;5012773;28;20027;-79
2023/03/15 01:16:16;;;;;;;1999.90;999.90;;;6.80;99.90;;;;;;5012825;28;20037;-79
2023/03/15 01:18:42;;;;;;;1999.90;999.90;;;6.80;99.90;;;;;;5013163;28;20080;-79
2023/03/15 01:21:12;;;;;;;1999.90;999.90;;;6.80;99.90;;;;;;5013598;28;20033;-72
2023/03/15 01:23:39;;;;;;;1999.90;999.90;;;6.80;99.90;;;;;;5013163;28;20022;-79
2023/03/15 01:26:07;;;;;;;1999.90;999.90;;;6.70;99.90;;;;;;5013152;28;20542;-72
2023/03/15 01:28:33;;;;;;;1999.90;999.90;;;6.70;99.90;;;;;;5013097;28;20439;-79
2023/03/15 01:30:59;;;;;;;1999.90;999.90;;;6.70;99.90;;;;;;5013055;28;20032;-79
2023/03/15 01:33:24;;;;;;;1999.90;999.90;;;6.70;99.90;;;;;;4996958;28;20444;-79
2023/03/15 01:36:05;;;;;;;1999.90;999.90;;;6.70;99.90;;;;;;4993443;28;20069;-72
2023/03/15 01:38:32;;;;;;;1999.90;999.90;;;6.60;99.90;;;;;;4993752;28;20486;-80
2023/03/15 01:40:58;;;;;;;1999.90;999.90;;;6.50;99.90;;;;;;5016260;28;20044;-79
2023/03/15 01:43:26;;;;;;;1999.90;999.90;;;6.50;99.90;;;;;;5032829;28;20044;-79
2023/03/15 01:45:58;;;;;;;1999.90;999.90;;;6.50;99.90;;;;;;5026139;28;20037;-79
2023/03/15 01:48:31;;;;;;;1999.90;999.90;;;6.60;99.90;;;;;;5012734;28;20129;-79
2023/03/15 01:50:58;;;;;;;1999.90;999.90;;;6.70;99.90;;;;;;5013019;28;20030;-72
2023/03/15 01:53:26;;;;;;;1999.90;999.90;;;6.80;99.90;;;;;;5013085;28;20033;-78
2023/03/15 01:55:53;;;;;;;1999.90;999.90;;;6.90;99.90;;;;;;5012902;28;20022;-79
2023/03/15 01:58:22;;;;;;;1999.90;999.90;;;7.00;99.90;;;;;;5012929;28;20025;-80
2023/03/15 02:00:51;;;;;;;1999.90;999.90;;;7.10;99.90;;;;;;5012578;28;20061;-72
2023/03/15 02:03:25;;;;;;;1999.90;999.90;;;7.00;99.90;;;;;;5013089;28;20081;-72
2023/03/15 02:06:00;;;;;;;1999.90;999.90;;;6.90;99.90;;;;;;5012804;28;20022;-79
2023/03/15 02:08:31;;;;;;;1999.90;999.90;;;6.80;99.90;;;;;;5012724;28;20436;-79
2023/03/15 02:11:00;;;;;;;1999.90;999.90;;;6.80;99.90;;;;;;5012970;28;20503;-79
2023/03/15 02:13:28;;;;;;;1999.90;999.90;;;6.90;99.90;;;;;;5012506;28;20022;-79
2023/03/15 02:15:54;;;;;;;1999.90;999.90;;;7.00;99.90;;;;;;5011716;28;20034;-79
2023/03/15 02:18:20;;;;;;;1999.90;999.90;;;7.10;99.90;;;;;;5012686;28;20069;-79
2023/03/15 02:20:59;;;;;;;1999.90;999.90;;;7.30;99.90;;;;;;5012654;28;20026;-72
2023/03/15 02:23:25;;;;;;;1999.90;999.90;;;7.50;99.90;;;;;;5012846;28;20026;-79
2023/03/15 02:26:19;;;;;;;1999.90;999.90;;;7.50;99.90;;;;;;5012628;28;20033;-72
2023/03/15 02:28:45;;;;;;;1999.90;999.90;;;7.40;99.90;;;;;;5012843;28;20396;-72
2023/03/15 02:31:11;;;;;;;1999.90;999.90;;;7.30;99.90;;;;;;5012727;28;20397;-79
2023/03/15 02:33:45;;;;;;;1999.90;999.90;;;7.20;99.90;;;;;;4994864;28;20034;-79
2023/03/15 02:36:23;;;;;;;1999.90;999.90;;;7.30;99.90;;;;;;4995566;28;20037;-79
2023/03/15 02:38:50;;;;;;;1999.90;999.90;;;7.30;99.90;;;;;;4996524;28;20103;-79
2023/03/15 02:41:21;;;;;;;1999.90;999.90;;;7.30;99.90;;;;;;5024203;28;20033;-72
2023/03/15 02:43:51;;;;;;;1999.90;999.90;;;7.40;99.90;;;;;;5035672;28;20025;-79
2023/03/15 02:46:17;;;;;;;1999.90;999.90;;;7.50;99.90;;;;;;5026104;28;20084;-79
2023/03/15 02:48:45;;;;;;;1999.90;999.90;;;7.60;99.90;;;;;;5015713;28;20074;-72
2023/03/15 02:51:23;;;;;;;1999.90;999.90;;;7.70;99.90;;;;;;5015924;28;20037;-80
2023/03/15 02:53:50;;;;;;;1999.90;999.90;;;7.70;99.90;;;;;;5015909;28;20057;-72
2023/03/15 02:56:15;;;;;;;1999.90;999.90;;;7.70;99.90;;;;;;5015818;28;20025;-71
2023/03/15 02:58:45;;;;;;;1999.90;999.90;;;7.70;99.90;;;;;;5015604;28;20531;-72
2023/03/15 03:01:12;;;;;;;1999.90;999.90;;;7.70;99.90;;;;;;5015336;28;20040;-80
2023/03/15 03:03:42;;;;;;;1999.90;999.90;;;7.70;99.90;;;;;;5015690;28;20069;-79
2023/03/15 03:06:09;;;;;;;1999.90;999.90;;;7.70;99.90;;;;;;5015558;28;20049;-79
2023/03/15 03:08:35;;;;;;;1999.90;999.90;;;7.60;99.90;;;;;;5015803;28;20046;-79
2023/03/15 03:11:01;;;;;;;1999.90;999.90;;;7.60;99.90;;;;;;5015850;28;20022;-72
2023/03/15 03:13:27;;;;;;;1999.90;999.90;;;7.60;99.90;;;;;;5015142;28;20087;-79
2023/03/15 03:15:57;;;;;;;1999.90;999.90;;;7.50;99.90;;;;;;5014768;28;20022;-79
2023/03/15 03:18:30;;;;;;;1999.90;999.90;;;7.40;99.90;;;;;;5015531;28;20051;-79
2023/03/15 03:20:58;;;;;;;1999.90;999.90;;;7.40;99.90;;;;;;5015578;28;20025;-72
2023/03/15 03:23:26;;;;;;;1999.90;999.90;;;7.30;99.90;;;;;;5015432;28;20022;-73
2023/03/15 03:25:53;;;;;;;1999.90;999.90;;;7.30;99.90;;;;;;5015024;28;20025;-79
2023/03/15 03:28:30;;;;;;;1999.90;999.90;;;7.20;99.90;;;;;;5015118;28;20026;-79
2023/03/15 03:30:57;;;;;;;1999.90;999.90;;;7.20;99.90;;;;;;5015100;28;20100;-79
2023/03/15 03:33:23;;;;;;;1999.90;999.90;;;7.30;99.90;;;;;;4999539;28;20031;-79
2023/03/15 03:35:49;;;;;;;1999.90;999.90;;;7.30;99.90;;;;;;4995679;28;20501;-72
2023/03/15 03:38:15;;;;;;;1999.90;999.90;;;7.40;99.90;;;;;;4995335;28;20038;-72
2023/03/15 03:40:41;;;;;;;1999.90;999.90;;;7.40;99.90;;;;;;5013635;28;20058;-79
2023/03/15 03:43:07;;;;;;;1999.90;999.90;;;7.40;99.90;;;;;;5034638;28;20026;-79
2023/03/15 03:45:33;;;;;;;1999.90;999.90;;;7.40;99.90;;;;;;5030614;28;20088;-79
2023/03/15 03:47:59;;;;;;;1999.90;999.90;;;7.40;99.90;;;;;;5013775;28;20459;-79
2023/03/15 03:50:25;;;;;;;1999.90;999.90;;;7.50;99.90;;;;;;5014643;28;20030;-79
2023/03/15 03:52:51;;;;;;;1999.90;999.90;;;7.50;99.90;;;;;;5014603;28;20038;-79
2023/03/15 03:55:17;;;;;;;1999.90;999.90;;;7.40;99.90;;;;;;5014781;28;20029;-79
2023/03/15 03:57:42;;;;;;;1999.90;999.90;;;7.40;99.90;;;;;;5014451;28;20042;-79
2023/03/15 04:00:13;;;;;;;1999.90;999.90;;;7.40;99.90;;;;;;5014758;28;20560;-72
2023/03/15 04:02:41;;;;;;;1999.90;999.90;;;7.50;99.90;;;;;;5014396;28;20401;-79
2023/03/15 04:05:08;;;;;;;1999.90;999.90;;;7.40;99.90;;;;;;5014480;28;20025;-79
2023/03/15 04:07:33;;;;;;;1999.90;999.90;;;7.40;99.90;;;;;;5014432;28;20017;-71
2023/03/15 04:10:01;;;;;;;1999.90;999.90;;;7.40;99.90;;;;;;5014517;28;20097;-79
2023/03/15 04:12:27;;;;;;;1999.90;999.90;;;7.40;99.90;;;;;;5014549;28;20088;-79
2023/03/15 04:14:52;;;;;;;1999.90;999.90;;;7.40;99.90;;;;;;5014187;28;20029;-79
2023/03/15 04:17:18;;;;;;;1999.90;999.90;;;7.40;99.90;;;;;;5013212;28;20432;-80
2023/03/15 04:19:46;;;;;;;1999.90;999.90;;;7.30;99.90;;;;;;5014252;28;20033;-79
2023/03/15 04:22:14;;;;;;;1999.90;999.90;;;7.40;99.90;;;;;;5013943;28;20037;-79
2023/03/15 04:24:40;;;;;;;1999.90;999.90;;;7.30;99.90;;;;;;5014280;28;20433;-79
2023/03/15 04:27:06;;;;;;;1999.90;999.90;;;7.30;99.90;;;;;;5014265;28;20026;-72
2023/03/15 04:29:31;;;;;;;1999.90;999.90;;;7.20;99.90;;;;;;5013854;28;20072;-79
2023/03/15 04:32:00;;;;;;;1999.90;999.90;;;7.20;99.90;;;;;;5009805;28;20068;-79
2023/03/15 04:34:27;;;;;;;1999.90;999.90;;;7.20;99.90;;;;;;4994742;28;20026;-80
2023/03/15 04:36:53;;;;;;;1999.90;999.90;;;7.20;99.90;;;;;;4994218;28;20112;-75
2023/03/15 04:39:19;;;;;;;1999.90;999.90;;;7.10;99.90;;;;;;4994039;28;20105;-80
2023/03/15 04:41:45;;;;;;;1999.90;999.90;;;7.10;99.90;;;;;;5061461;28;20183;-79
2023/03/15 04:44:10;;;;;;;1999.90;999.90;;;7.00;99.90;;;;;;5033463;28;20108;-79
2023/03/15 04:46:36;;;;;;;1999.90;999.90;;;7.00;99.90;;;;;;5020956;28;20030;-78
2023/03/15 04:49:03;;;;;;;1999.90;999.90;;;6.90;99.90;;;;;;5013801;28;20029;-80
2023/03/15 04:51:29;;;;;;;1999.90;999.90;;;6.90;99.90;;;;;;5013785;28;20029;-79
2023/03/15 04:53:55;;;;;;;1999.90;999.90;;;6.90;99.90;;;;;;5013691;28;20032;-72
2023/03/15 04:56:20;;;;;;;1999.90;999.90;;;6.90;99.90;;;;;;5013493;28;20041;-72
2023/03/15 04:58:46;;;;;;;1999.90;999.90;;;6.80;99.90;;;;;;5012006;28;20033;-79
2023/03/15 05:01:12;;;;;;;1999.90;999.90;;;6.90;99.90;;;;;;5013505;28;20030;-79
2023/03/15 05:03:37;;;;;;;1999.90;999.90;;;6.90;99.90;;;;;;5013344;28;20093;-79
2023/03/15 05:06:06;;;;;;;1999.90;999.90;;;6.90;99.90;;;;;;5013538;28;20481;-80
2023/03/15 05:08:34;;;;;;;1999.90;999.90;;;7.00;99.90;;;;;;5012069;28;20105;-79
2023/03/15 05:11:00;;;;;;;1999.90;999.90;;;6.90;99.90;;;;;;5013563;28;20026;-80
2023/03/15 05:13:26;;;;;;;1999.90;999.90;;;7.00;99.90;;;;;;5013160;28;20022;-79
2023/03/15 05:15:52;;;;;;;1999.90;999.90;;;7.00;99.90;;;;;;5012855;28;20088;-72
2023/03/15 05:18:17;;;;;;;1999.90;999.90;;;7.00;99.90;;;;;;5013389;28;20073;-79
2023/03/15 05:20:43;;;;;;;1999.90;999.90;;;6.90;99.90;;;;;;5013418;28;20061;-79
2023/03/15 05:23:08;;;;;;;1999.90;999.90;;;6.90;99.90;;;;;;5013285;28;20029;-72
2023/03/15 05:25:35;;;;;;;1999.90;999.90;;;6.90;99.90;;;;;;5013407;28;20037;-79
2023/03/15 05:28:03;;;;;;;1999.90;999.90;;;6.80;99.90;;;;;;5012413;28;20403;-79
2023/03/15 05:30:32;;;;;;;1999.90;999.90;;;6.80;99.90;;;;;;5012944;28;20504;-72
2023/03/15 05:32:58;;;;;;;1999.90;999.90;;;6.80;99.90;;;;;;5000962;28;20027;-71
2023/03/15 05:35:25;;;;;;;1999.90;999.90;;;6.70;99.90;;;;;;5024884;28;20489;-78
2023/03/15 05:37:53;;;;;;;1999.90;999.90;;;6.80;99.90;;;;;;4993574;28;20041;-79
2023/03/15 05:40:19;;;;;;;1999.90;999.90;;;6.70;99.90;;;;;;5006034;28;20033;-79
2023/03/15 05:42:45;;;;;;;1999.90;999.90;;;6.80;99.90;;;;;;5032472;28;20128;-79
2023/03/15 05:45:11;;;;;;;1999.90;999.90;;;6.80;99.90;;;;;;5032225;28;20040;-79
2023/03/15 05:47:36;;;;;;;1999.90;999.90;;;7.00;99.90;;;;;;5012714;28;20100;-79
2023/03/15 05:50:03;;;;;;;1999.90;999.90;;;7.00;99.90;;;;;;5013199;28;20505;-72
2023/03/15 05:52:29;;;;;;;1999.90;999.90;;;7.10;99.90;;;;;;5013008;28;20028;-79
2023/03/15 05:54:55;;;;;;;1999.90;999.90;;;7.20;99.90;;;;;;5012567;28;20060;-72
2023/03/15 05:57:21;;;;;;;1999.90;999.90;;;7.20;99.90;;;;;;5013080;28;20026;-71
2023/03/15 05:59:46;;;;;;;1999.90;999.90;;;7.20;99.90;;;;;;5012832;28;20029;-79
2023/03/15 06:02:12;;;;;;;1999.90;999.90;;;7.30;99.90;;;;;;5012711;28;20066;-79
2023/03/15 06:04:37;;;;;;;1999.90;999.90;;;7.30;99.90;;;;;;5013184;28;20026;-79
2023/03/15 06:07:03;;;;;;;1999.90;999.90;;;7.30;99.90;;;;;;5012638;28;20417;-79
2023/03/15 06:09:29;;;;;;;1999.90;999.90;;;7.30;99.90;;;;;;5012935;28;20109;-79
2023/03/15 06:11:55;;;;;;;1999.90;999.90;;;7.40;99.90;;;;;;5016685;28;20093;-72
2023/03/15 06:14:20;;;;;;;1999.90;999.90;;;7.40;99.90;;;;;;5015406;28;20033;-79
2023/03/15 06:16:46;;;;;;;1999.90;999.90;;;7.40;99.90;;;;;;5015879;28;20081;-78
2023/03/15 06:19:12;;;;;;;1999.90;999.90;;;7.50;99.90;;;;;;5016796;28;20030;-79
2023/03/15 06:21:37;;;;;;;1999.90;999.90;;;7.50;99.90;;;;;;5015006;28;20033;-79
2023/03/15 06:24:05;;;;;;;1999.90;999.90;;;7.50;99.90;;;;;;5016910;28;20034;-72
2023/03/15 06:26:30;;;;;;;1999.90;999.90;;;7.60;99.90;;;;;;5024508;28;20077;-79
2023/03/15 06:28:56;;;;;;;1999.90;999.90;;;7.60;99.90;;;;;;5016083;28;20118;-79
2023/03/15 06:31:22;;;;;;;1999.90;999.90;;;7.70;99.90;;;;;;5015789;28;20022;-79
2023/03/15 06:33:47;;;;;;;1999.90;999.90;;;7.70;99.90;;;;;;4996840;28;20037;-79
2023/03/15 06:36:14;;;;;;;1999.90;999.90;;;7.80;99.90;;;;;;5005595;28;20101;-78
2023/03/15 06:38:40;;;;;;;1999.90;999.90;;;7.80;99.90;;;;;;5015856;28;20026;-79
2023/03/15 06:41:07;;;;;;;1999.90;999.90;;;7.80;99.90;;;;;;5028102;28;20018;-79
2023/03/15 06:43:33;;;;;;;1999.90;999.90;;;7.90;99.90;;;;;;5035356;28;20032;-79
2023/03/15 06:45:58;;;;;;;1999.90;999.90;;;8.00;99.90;;;;;;5028040;28;20469;-79
2023/03/15 06:48:25;;;;;;;1999.90;999.90;;;8.00;99.90;;;;;;5015517;28;20049;-72
2023/03/15 06:50:50;;;;;;;1999.90;999.90;;;8.00;99.90;;;;;;5015747;28;20026;-72
2023/03/15 06:53:16;;;;;;;1999.90;999.90;;;8.00;99.90;;;;;;5015636;28;20029;-79
2023/03/15 06:55:42;;;;;;;1999.90;999.90;;;8.00;99.90;;;;;;5015169;28;20084;-79
2023/03/15 06:58:08;;;;;;;1999.90;999.90;;;8.00;99.90;;;;;;5015535;28;20026;-79
2023/03/15 07:00:34;;;;;;;1999.90;999.90;;;8.00;99.90;;;;;;5015691;28;20017;-72
2023/03/15 07:02:59;;;;;;;1999.90;999.90;;;8.00;99.90;;;;;;5012593;28;20029;-72
2023/03/15 07:05:25;;;;;;;1999.90;999.90;;;8.00;99.90;;;;;;5011530;28;20022;-72
2023/03/15 07:07:51;;;;;;;1999.90;999.90;;;8.00;99.90;;;;;;5012466;28;20229;-79
2023/03/15 07:10:16;;;;;;;1999.90;999.90;;;8.10;99.90;;;;;;5013096;28;20014;-71
2023/03/15 07:12:42;;;;;;;1999.90;999.90;;;8.10;99.90;;;;;;5014606;28;20042;-79
2023/03/15 07:15:08;;;;;;;1999.90;999.90;;;8.20;99.90;;;;;;5013202;28;20058;-79
2023/03/15 07:17:34;;;;;;;1999.90;999.90;;;8.40;99.90;;;;;;5008570;28;20030;-72
2023/03/15 07:19:59;;;;;;;1999.90;999.90;;;8.50;99.90;;;;;;5012818;28;20129;-72
2023/03/15 07:22:25;;;;;;;1999.90;999.90;;;8.50;99.90;;;;;;5013129;28;20091;-79
2023/03/15 07:24:51;;;;;;;1999.90;999.90;;;8.60;99.90;;;;;;5013827;28;20059;-79
2023/03/15 07:27:16;;;;;;;1999.90;999.90;;;8.80;99.90;;;;;;5004372;28;20031;-72
2023/03/15 07:29:42;;;;;;;1999.90;999.90;;;9.10;99.90;;;;;;5006565;28;20053;-72
2023/03/15 07:32:08;;;;;;;1999.90;999.90;;;9.30;99.90;;;;;;5004858;28;20583;-79
2023/03/15 07:34:33;;;;;;;1999.90;999.90;;;9.50;99.90;;;;;;5010411;28;20033;-79
2023/03/15 07:36:59;;;;;;;1999.90;999.90;;;9.70;99.90;;;;;;5011283;28;20453;-79
2023/03/15 07:39:25;;;;;;;1999.90;999.90;;;9.90;99.90;;;;;;5013076;28;20121;-72
2023/03/15 07:41:51;;;;;;;1999.90;999.90;;;10.00;99.90;;;;;;5020431;28;20088;-72
2023/03/15 07:44:17;;;;;;;1999.90;999.90;;;10.30;99.90;;;;;;5011978;28;20062;-72
2023/03/15 07:46:43;;;;;;;1999.90;999.90;;;10.40;99.90;;;;;;5009345;28;20057;-79
2023/03/15 07:49:08;;;;;;;1999.90;999.90;;;10.70;99.90;;;;;;5010417;28;20038;-79
2023/03/15 07:51:34;;;;;;;1999.90;999.90;;;10.80;99.90;;;;;;5014219;28;20112;-79
2023/03/15 07:54:00;;;;;;;1999.90;999.90;;;11.00;99.90;;;;;;5032045;28;20096;-72
2023/03/15 07:56:25;;;;;;;1999.90;999.90;;;11.20;99.90;;;;;;5030196;28;20037;-73
2023/03/15 07:58:51;;;;;;;1999.90;999.90;;;11.60;99.90;;;;;;5020284;28;20061;-73
2023/03/15 08:01:16;;;;;;;1999.90;999.90;;;11.70;99.90;;;;;;5005410;28;20030;-79
2023/03/15 08:03:42;;;;;;;1999.90;999.90;;;11.80;99.90;;;;;;5023264;28;20608;-72
2023/03/15 08:06:08;;;;;;;1999.90;999.90;;;11.90;99.90;;;;;;5020973;28;20026;-73
2023/03/15 08:08:33;;;;;;;1999.90;999.90;;;11.90;99.90;;;;;;5001337;28;20685;-72
2023/03/15 08:10:59;;;;;;;1999.90;999.90;;;12.00;99.90;;;;;;5007041;28;20026;-72
2023/03/15 08:13:25;;;;;;;1999.90;999.90;;;12.10;99.90;;;;;;5043611;28;20087;-79
2023/03/15 08:15:50;;;;;;;1999.90;999.90;;;12.40;99.90;;;;;;5010296;28;20034;-79
2023/03/15 08:18:16;;;;;;;1999.90;999.90;;;12.60;99.90;;;;;;5006660;28;20472;-72
2023/03/15 08:20:42;;;;;;;1999.90;999.90;;;13.20;99.90;;;;;;5011238;28;20488;-79
2023/03/15 08:23:08;;;;;;;1999.90;999.90;;;13.20;99.90;;;;;;5011346;28;20033;-78
2023/03/15 08:25:39;;;;;;;1999.90;999.90;;;14.00;99.90;;;;;;5015723;28;20026;-72
2023/03/15 08:28:05;;;;;;;1999.90;999.90;;;13.60;99.90;;;;;;5012697;28;20116;-79
2023/03/15 08:30:30;;;;;;;1999.90;999.90;;;13.40;99.90;;;;;;5017814;28;20623;-79
2023/03/15 08:32:56;;;;;;;1999.90;999.90;;;13.90;99.90;;;;;;5015003;28;20333;-73
2023/03/15 08:35:22;;;;;;;1999.90;999.90;;;14.20;99.90;;;;;;5002472;28;20124;-72
2023/03/15 08:37:47;;;;;;;1999.90;999.90;;;14.00;99.90;;;;;;5012275;28;20038;-73
2023/03/15 08:40:24;;;;;;;1999.90;999.90;;;13.90;99.90;;;;;;5015939;28;20502;-79
2023/03/15 08:42:51;;;;;;;1999.90;999.90;;;13.50;99.90;;;;;;5003036;28;20030;-73
2023/03/15 08:45:17;;;;;;;1999.90;999.90;;;13.70;99.90;;;;;;5017917;28;20022;-72
2023/03/15 08:47:43;;;;;;;1999.90;999.90;;;13.70;99.90;;;;;;5009546;28;20033;-73
2023/03/15 08:50:12;;;;;;;1999.90;999.90;;;13.70;99.90;;;;;;5017941;28;20511;-79
2023/03/15 08:52:38;;;;;;;1999.90;999.90;;;14.00;99.90;;;;;;5020401;28;20029;-72
2023/03/15 08:55:04;;;;;;;1999.90;999.90;;;14.00;99.90;;;;;;5011088;28;20026;-79
2023/03/15 08:57:31;;;;;;;1999.90;999.90;;;14.20;99.90;;;;;;5017275;28;20044;-73
2023/03/15 09:00:06;;;;;;;1999.90;999.90;;;14.10;99.90;;;;;;5009920;28;20033;-73
2023/03/15 09:02:32;;;;;;;1999.90;999.90;;;14.20;99.90;;;;;;5010232;28;20488;-80
2023/03/15 09:04:58;;;;;;;1999.90;999.90;;;14.40;99.90;;;;;;5011626;28;20100;-79
2023/03/15 09:07:23;;;;;;;1999.90;999.90;;;14.30;99.90;;;;;;5015737;28;20455;-79
2023/03/15 09:09:53;;;;;;;1999.90;999.90;;;14.20;99.90;;;;;;5002680;28;20026;-79
2023/03/15 09:12:19;;;;;;;1999.90;999.90;;;14.50;99.90;;;;;;5008085;28;20032;-73
2023/03/15 09:14:45;;;;;;;1999.90;999.90;;;14.90;99.90;;;;;;5016555;28;20385;-72
2023/03/15 09:17:11;;;;;;;1999.90;999.90;;;15.70;99.90;;;;;;5008821;28;20037;-80
2023/03/15 09:19:37;;;;;;;1999.90;999.90;;;16.60;99.90;;;;;;5014545;28;20738;-74
2023/03/15 09:22:03;;;;;;;1999.90;999.90;;;17.70;99.90;;;;;;5001617;28;20021;-73
2023/03/15 09:24:28;;;;;;;1999.90;999.90;;;17.70;99.90;;;;;;5002729;28;20508;-73
2023/03/15 09:26:54;;;;;;;1999.90;999.90;;;17.50;99.90;;;;;;5027445;28;20029;-79
2023/03/15 09:29:20;;;;;;;1999.90;999.90;;;17.00;99.90;;;;;;5029750;28;20043;-79
2023/03/15 09:31:45;;;;;;;1999.90;999.90;;;16.40;99.90;;;;;;5015468;28;20045;-81
2023/03/15 09:34:11;;;;;;;1999.90;999.90;;;17.40;99.90;;;;;;5006033;28;20041;-80
2023/03/15 09:36:37;;;;;;;1999.90;999.90;;;18.30;99.90;;;;;;5010083;28;20034;-73
2023/03/15 09:39:03;;;;;;;1999.90;999.90;;;17.80;99.90;;;;;;5005774;28;20525;-72
2023/03/15 09:41:47;;;;;;;1999.90;999.90;;;16.50;99.90;;;;;;5000235;28;20022;-72
2023/03/15 09:44:34;;;;;;;1999.90;999.90;;;15.40;99.90;;;;;;5010882;28;20488;-80
2023/03/15 09:47:21;;;;;;;1999.90;999.90;;;16.50;99.90;;;;;;5007646;28;20042;-77
2023/03/15 09:49:54;;;;;;;1999.90;999.90;;;15.30;99.90;;;;;;5012650;28;20041;-72
2023/03/15 09:53:08;;;;;;;1999.90;999.90;;;15.90;99.90;;;;;;5009673;28;20120;-73
2023/03/15 09:55:34;;;;;;;1999.90;999.90;;;16.30;99.90;;;;;;5000255;28;20069;-72
2023/03/15 09:58:03;;;;;;;1999.90;999.90;;;15.60;99.90;;;;;;5017179;28;20052;-78
2023/03/15 10:00:48;;;;;;;1999.90;999.90;;;15.00;99.90;;;;;;5013399;28;20504;-78
2023/03/15 10:03:51;;;;;;;1999.90;999.90;;;15.00;99.90;;;;;;5008969;28;20044;-71
2023/03/15 10:06:23;;;;;;;1999.90;999.90;;;14.70;99.90;;;;;;4999042;28;20037;-71
2023/03/15 10:08:53;;;;;;;1999.90;999.90;;;14.60;99.90;;;;;;5001843;28;20501;-77
2023/03/15 10:11:25;;;;;;;1999.90;999.90;;;14.40;99.90;;;;;;5007773;28;20038;-71
2023/03/15 10:14:05;;;;;;;1999.90;999.90;;;14.80;99.90;;;;;;5016733;28;20034;-70
2023/03/15 10:16:44;;;;;;;1999.90;999.90;;;14.80;99.90;;;;;;5006022;28;20487;-71
2023/03/15 10:19:32;;;;;;;1999.90;999.90;;;14.40;99.90;;;;;;5011818;28;20030;-71
2023/03/15 10:22:12;;;;;;;1999.90;999.90;;;14.10;99.90;;;;;;5008266;28;20401;-71
2023/03/15 10:25:10;;;;;;;1999.90;999.90;;;14.00;99.90;;;;;;5011616;28;20485;-77
2023/03/15 10:27:44;;;;;;;1999.90;999.90;;;14.40;99.90;;;;;;5006431;28;20018;-72
2023/03/15 10:30:22;;;;;;;1999.90;999.90;;;14.50;99.90;;;;;;5004373;28;20437;-77
2023/03/15 10:32:59;;;;;;;1999.90;999.90;;;14.30;99.90;;;;;;5023725;28;20030;-72
2023/03/15 10:35:25;;;;;;;1999.90;999.90;;;14.10;99.90;;;;;;5044596;28;20041;-72
2023/03/15 10:37:50;;;;;;;1999.90;999.90;;;14.00;99.90;;;;;;5013317;28;20034;-79
2023/03/15 10:40:41;;;;;;;1999.90;999.90;;;13.70;99.90;;;;;;5010456;28;20038;-75
2023/03/15 10:43:31;;;;;;;1999.90;999.90;;;13.60;99.90;;;;;;5012162;28;20022;-72
2023/03/15 10:46:00;;;;;;;1999.90;999.90;;;14.20;99.90;;;;;;5013108;28;20060;-79
2023/03/15 10:48:27;;;;;;;1999.90;999.90;;;14.20;99.90;;;;;;5015027;28;20048;-71
2023/03/15 10:50:55;;;;;;;1999.90;999.90;;;14.10;99.90;;;;;;5011241;28;20034;-78
2023/03/15 10:53:24;;;;;;;1999.90;999.90;;;13.70;99.90;;;;;;5012270;28;20025;-78
2023/03/15 10:56:01;;;;;;;1999.90;999.90;;;13.90;99.90;;;;;;5014296;28;20041;-72
2023/03/15 10:58:40;;;;;;;1999.90;999.90;;;14.20;99.90;;;;;;5011416;28;20033;-71
2023/03/15 11:01:10;;;;;;;1999.90;999.90;;;13.80;99.90;;;;;;5006723;28;20392;-77
2023/03/15 11:03:37;;;;;;;1999.90;999.90;;;13.70;99.90;;;;;;5019549;28;20459;-78
2023/03/15 11:06:20;;;;;;;1999.90;999.90;;;13.80;99.90;;;;;;5021591;28;20026;-78
2023/03/15 11:08:46;;;;;;;1999.90;999.90;;;13.80;99.90;;;;;;5013005;28;20544;-71
2023/03/15 11:11:12;;;;;;;1999.90;999.90;;;14.10;99.90;;;;;;5012258;28;20041;-72
2023/03/15 11:13:39;;;;;;;1999.90;999.90;;;13.50;99.90;;;;;;5010131;28;20048;-78
2023/03/15 11:16:13;;;;;;;1999.90;999.90;;;13.30;99.90;;;;;;5014193;28;20030;-72
2023/03/15 11:18:56;;;;;;;1999.90;999.90;;;13.90;99.90;;;;;;5011683;28;20045;-72
2023/03/15 11:21:29;;;;;;;1999.90;999.90;;;14.40;99.90;;;;;;5005341;28;20030;-72
2023/03/15 11:23:55;;;;;;;1999.90;999.90;;;14.20;99.90;;;;;;5005303;28;20026;-71
2023/03/15 11:26:24;;;;;;;1999.90;999.90;;;14.00;99.90;;;;;;5010509;28;20652;-78
2023/03/15 11:28:57;;;;;;;1999.90;999.90;;;14.30;99.90;;;;;;5012305;28;20026;-78
2023/03/15 11:31:27;;;;;;;1999.90;999.90;;;14.30;99.90;;;;;;4998074;28;20113;-77
2023/03/15 11:33:57;;;;;;;1999.90;999.90;;;14.30;99.90;;;;;;5019270;28;20068;-71
2023/03/15 11:36:29;;;;;;;1999.90;999.90;;;14.60;99.90;;;;;;5032717;28;20083;-71
2023/03/15 11:38:55;;;;;;;1999.90;999.90;;;14.60;99.90;;;;;;5013280;28;20149;-79
2023/03/15 11:41:41;;;;;;;1999.90;999.90;;;14.90;99.90;;;;;;5023445;28;20126;-78
2023/03/15 11:44:13;;;;;;;1999.90;999.90;;;14.90;99.90;;;;;;5011852;28;20481;-78
2023/03/15 11:46:44;;;;;;;1999.90;999.90;;;14.80;99.90;;;;;;5011188;28;20030;-72
2023/03/15 11:49:29;;;;;;;1999.90;999.90;;;14.60;99.90;;;;;;5005804;28;20048;-71
2023/03/15 11:51:56;;;;;;;1999.90;999.90;;;14.20;99.90;;;;;;5001505;28;20025;-71
2023/03/15 11:54:27;;;;;;;1999.90;999.90;;;14.30;99.90;;;;;;5016701;28;20037;-78
2023/03/15 11:56:55;;;;;;;1999.90;999.90;;;14.50;99.90;;;;;;5021184;28;20036;-78
2023/03/15 11:59:31;;;;;;;1999.90;999.90;;;14.10;99.90;;;;;;5025671;28;20072;-72
2023/03/15 12:01:56;;;;;;;1999.90;999.90;;;14.20;99.90;;;;;;5030814;28;20026;-72
2023/03/15 12:04:27;;;;;;;1999.90;999.90;;;14.50;99.90;;;;;;5022106;28;20029;-75
2023/03/15 12:06:55;;;;;;;1999.90;999.90;;;14.60;99.90;;;;;;5010364;28;20516;-78
2023/03/15 12:09:35;;;;;;;1999.90;999.90;;;14.20;99.90;;;;;;5008472;28;20041;-77
2023/03/15 12:12:21;;;;;;;1999.90;999.90;;;14.50;99.90;;;;;;5002725;28;20030;-71